Fort Kent Mills, Maine
Current Conditions -  °F | °C
As of 3:53 AM on Saturday 25 Oct 2014 (Local Time) from KFVE Reporting Station
Overcast Overcast  
Wind Chill: 32°   Ceiling: 5000
Heat Index: 37°   Visibility: 10mi
Dew Point: 34°   Wind: 6mph
Humidity: 89%   Direction: 350°N
Pressure: 29.62"   Gusts: NA
Location:  47.24°N, 68.58°W
Report Text: KFVE 250753Z AUTO 35005KT 10SM OVC050 03/01 A2962 RMK AO2 SLP036 T00280011
Loading
Personal Weather Stations






























Interactive Weather Map
Tropical Storm Tracking
New forecast layout! Learn more

10-Day Weather Forecast

Advertisements
Track Severe Weather on mobile